Time;durP1;ratioP1;P1;durP2;ratioP2;P2;SDS_P1;SDS_P2;PMS_P1;PMS_P2;Temp;Humidity;BMP_temperature;BMP_pressure;BME280_temperature;BME280_humidity;BME280_pressure;Samples;Min_cycle;Max_cycle;Signal;HPM_P1;HPM_P2
2022/03/25 00:01:59;;;;;;;21.20;14.05;;;;;;;11.30;30.22;100076.78;5065209;28;20107;-72
2022/03/25 00:04:33;;;;;;;21.13;14.38;;;;;;;11.46;30.18;100102.53;5065302;28;20045;-72
2022/03/25 00:07:05;;;;;;;23.77;15.57;;;;;;;11.11;30.56;100069.69;5065984;28;20300;-72
2022/03/25 00:09:37;;;;;;;20.15;15.23;;;;;;;10.49;30.35;100014.16;5065928;28;20053;-72
2022/03/25 00:12:10;;;;;;;24.13;16.15;;;;;;;11.32;30.36;100106.78;5065861;28;20045;-72
2022/03/25 00:14:42;;;;;;;18.60;13.25;;;;;;;11.23;30.63;100105.41;5066122;28;20086;-72
2022/03/25 00:17:15;;;;;;;21.65;14.05;;;;;;;11.17;30.62;100111.00;5066173;28;20036;-72
2022/03/25 00:19:48;;;;;;;21.58;14.32;;;;;;;11.09;31.28;100110.47;5065498;28;20045;-71
2022/03/25 00:22:21;;;;;;;26.50;14.67;;;;;;;10.73;30.95;100044.00;5065976;28;20045;-71
2022/03/25 00:24:53;;;;;;;20.20;14.15;;;;;;;10.84;31.22;100063.00;5065864;28;20064;-69
2022/03/25 00:27:25;;;;;;;23.45;14.73;;;;;;;11.12;31.29;100095.28;5065530;28;20082;-72
2022/03/25 00:29:59;;;;;;;23.50;14.65;;;;;;;11.09;31.23;100100.72;5065227;28;20048;-73
2022/03/25 00:32:32;;;;;;;21.52;14.05;;;;;;;11.06;31.07;100100.00;5065821;28;20049;-71
2022/03/25 00:35:07;;;;;;;29.17;15.32;;;;;;;10.96;32.01;100094.25;5064956;28;20076;-71
2022/03/25 00:37:39;;;;;;;25.60;14.50;;;;;;;10.74;31.25;100061.66;5065621;28;20041;-72
2022/03/25 00:40:10;;;;;;;21.27;13.60;;;;;;;10.92;31.31;100092.69;5064623;28;20041;-72
2022/03/25 00:42:40;;;;;;;24.02;13.45;;;;;;;10.85;31.33;100091.22;5064594;28;20041;-72
2022/03/25 00:45:10;;;;;;;20.65;13.40;;;;;;;10.82;31.25;100102.84;5065475;28;20040;-71
2022/03/25 00:47:39;;;;;;;24.08;13.55;;;;;;;10.48;31.61;100042.47;5064838;28;20065;-71
2022/03/25 00:50:11;;;;;;;26.38;13.63;;;;;;;10.69;31.60;100096.31;5065099;28;20049;-71
2022/03/25 00:52:40;;;;;;;19.35;13.23;;;;;;;9.61;31.66;99927.03;5065596;28;20043;-71
2022/03/25 00:55:10;;;;;;;19.48;14.60;;;;;;;10.58;31.82;100085.31;5065832;28;20033;-71
2022/03/25 00:57:40;;;;;;;22.27;12.93;;;;;;;10.23;31.89;100039.16;5064559;28;20040;-71
2022/03/25 01:00:11;;;;;;;19.67;12.77;;;;;;;10.53;31.91;100079.34;5064797;28;20045;-71
2022/03/25 01:02:40;;;;;;;21.42;13.60;;;;;;;10.50;32.15;100083.00;5077684;28;20063;-72
2022/03/25 01:05:12;;;;;;;17.55;12.02;;;;;;;10.46;32.26;100081.41;5085465;28;20104;-71
2022/03/25 01:07:41;;;;;;;23.48;14.93;;;;;;;10.45;32.02;100082.34;5085000;28;20393;-72
2022/03/25 01:10:11;;;;;;;28.13;11.77;;;;;;;10.41;32.35;100085.19;5085414;28;20060;-71
2022/03/25 01:12:41;;;;;;;23.27;15.57;;;;;;;10.31;32.47;100079.41;5085487;28;20047;-71
2022/03/25 01:15:12;;;;;;;20.98;12.15;;;;;;;10.02;32.30;100038.28;5085842;28;20109;-70
2022/03/25 01:17:41;;;;;;;22.77;14.75;;;;;;;10.27;32.50;100083.13;5085600;28;20123;-70
2022/03/25 01:20:14;;;;;;;21.83;13.10;;;;;;;9.14;32.52;99891.03;5085460;28;20043;-71
2022/03/25 01:22:42;;;;;;;22.15;13.13;;;;;;;9.91;32.51;100033.44;5084826;28;20040;-71
2022/03/25 01:25:12;;;;;;;21.70;14.48;;;;;;;10.17;32.99;100080.00;5068225;28;20051;-71
2022/03/25 01:27:43;;;;;;;20.83;12.73;;;;;;;10.15;32.56;100078.34;5067991;28;20041;-72
2022/03/25 01:30:13;;;;;;;28.38;15.20;;;;;;;10.11;32.74;100082.91;5069755;28;20037;-72
2022/03/25 01:32:43;;;;;;;18.98;12.55;;;;;;;8.93;33.20;99909.50;5088739;28;20112;-71
2022/03/25 01:35:15;;;;;;;20.15;13.25;;;;;;;10.04;32.89;100088.53;5088789;28;20136;-72
2022/03/25 01:37:47;;;;;;;19.58;14.05;;;;;;;10.07;32.36;100076.00;5071708;28;20036;-71
2022/03/25 01:40:20;;;;;;;19.52;12.63;;;;;;;9.08;32.68;99968.84;5089076;28;20050;-71
2022/03/25 01:42:52;;;;;;;18.08;12.00;;;;;;;9.95;32.68;100077.38;5088748;28;20044;-71
2022/03/25 01:45:32;;;;;;;20.27;11.85;;;;;;;9.91;33.45;100081.09;5088045;28;20055;-71
2022/03/25 01:48:09;;;;;;;18.05;13.82;;;;;;;9.87;33.38;100086.56;5088678;28;20075;-72
2022/03/25 01:50:46;;;;;;;15.20;12.30;;;;;;;9.91;33.06;100086.38;5087871;28;20041;-71
2022/03/25 01:53:22;;;;;;;24.58;14.55;;;;;;;9.87;32.91;100082.13;5088774;28;20177;-73
2022/03/25 01:55:57;;;;;;;23.33;12.68;;;;;;;8.68;32.88;99920.16;5088810;28;20086;-72
2022/03/25 01:58:32;;;;;;;18.55;12.43;;;;;;;9.60;32.93;100033.81;5088710;28;20047;-72
2022/03/25 02:01:06;;;;;;;24.80;12.98;;;;;;;9.87;32.60;100079.47;5088380;28;20200;-71
2022/03/25 02:03:38;;;;;;;17.83;12.27;;;;;;;9.84;32.65;100079.59;5071624;28;20297;-72
2022/03/25 02:06:13;;;;;;;17.38;12.20;;;;;;;8.91;32.90;99958.91;5088265;28;20037;-71
2022/03/25 02:08:45;;;;;;;17.98;11.15;;;;;;;9.42;32.87;100021.34;5088161;28;20082;-71
2022/03/25 02:11:19;;;;;;;18.52;12.75;;;;;;;9.76;32.91;100079.06;5087454;28;20037;-71
2022/03/25 02:13:51;;;;;;;21.52;12.10;;;;;;;9.34;33.65;100033.09;5088195;28;20044;-71
2022/03/25 02:16:34;;;;;;;19.00;13.70;;;;;;;8.65;34.99;99943.19;5070935;28;20281;-72
2022/03/25 02:19:08;;;;;;;21.73;12.00;;;;;;;8.34;34.33;99893.31;5088035;28;20299;-71
2022/03/25 02:21:42;;;;;;;22.80;13.73;;;;;;;9.45;34.21;100082.06;5070988;28;20044;-71
2022/03/25 02:24:16;;;;;;;18.10;11.80;;;;;;;9.14;34.01;100021.47;5070606;28;20044;-71
2022/03/25 02:26:49;;;;;;;16.63;11.83;;;;;;;9.04;34.09;100022.75;5088407;28;20063;-71
2022/03/25 02:29:22;;;;;;;21.08;13.07;;;;;;;9.46;33.90;100096.16;5088244;28;20067;-70
2022/03/25 02:31:56;;;;;;;22.23;13.23;;;;;;;9.24;33.73;100044.03;5087890;28;20048;-70
2022/03/25 02:34:28;;;;;;;19.63;13.35;;;;;;;9.09;33.74;100047.25;5070741;28;20044;-71
2022/03/25 02:37:02;;;;;;;19.33;12.48;;;;;;;9.39;34.40;100086.69;5087824;28;20036;-71
2022/03/25 02:39:34;;;;;;;16.67;11.63;;;;;;;9.25;34.20;100090.72;5070744;28;20105;-72
2022/03/25 02:42:08;;;;;;;18.20;11.48;;;;;;;9.26;34.58;100089.81;5052631;28;20044;-70
2022/03/25 02:44:40;;;;;;;16.58;10.95;;;;;;;9.21;34.92;100097.06;5053498;28;20045;-71
2022/03/25 02:47:17;;;;;;;17.13;11.65;;;;;;;8.49;34.75;99977.25;5088119;28;20112;-69
2022/03/25 02:49:51;;;;;;;17.17;11.93;;;;;;;9.22;34.26;100127.88;5054770;28;20177;-70
2022/03/25 02:52:26;;;;;;;19.77;13.63;;;;;;;-2.19;34.86;98193.22;5071602;28;20044;-72
2022/03/25 02:55:02;;;;;;;18.85;11.43;;;;;;;4.48;34.70;99308.03;5088792;28;20041;-71
2022/03/25 02:57:35;;;;;;;18.92;11.18;;;;;;;9.22;34.11;100093.50;5070642;28;20047;-72
2022/03/25 03:00:11;;;;;;;14.98;10.82;;;;;;;8.16;34.33;99921.25;5053735;28;20044;-71
2022/03/25 03:02:44;;;;;;;19.02;11.77;;;;;;;9.08;34.88;100092.25;5066903;28;20313;-71
2022/03/25 03:05:17;;;;;;;18.60;12.38;;;;;;;9.01;34.33;100482.94;5050641;28;20095;-71
2022/03/25 03:07:49;;;;;;;18.92;11.65;;;;;;;3.89;34.49;99225.88;5051739;28;20108;-70
2022/03/25 03:10:18;;;;;;;17.08;12.40;;;;;;;8.98;34.35;100094.38;5050949;28;20048;-72
2022/03/25 03:12:47;;;;;;;14.48;10.40;;;;;;;4.10;34.30;99338.88;5051039;28;20051;-72
2022/03/25 03:15:18;;;;;;;17.55;11.68;;;;;;;9.06;34.15;100223.66;5067351;28;20075;-71
2022/03/25 03:17:49;;;;;;;17.02;12.00;;;;;;;7.06;34.47;99768.63;5067586;28;20040;-72
2022/03/25 03:20:20;;;;;;;18.38;11.25;;;;;;;8.97;34.21;100580.00;5068061;28;20111;-71
2022/03/25 03:22:57;;;;;;;16.85;11.93;;;;;;;8.92;35.31;100084.03;5050744;28;20124;-72
2022/03/25 03:25:29;;;;;;;16.90;13.02;;;;;;;8.85;34.68;100101.91;5067637;28;20041;-72
2022/03/25 03:28:02;;;;;;;22.95;12.50;;;;;;;7.49;34.50;99859.44;5068850;28;20037;-71
2022/03/25 03:30:35;;;;;;;15.77;11.70;;;;;;;6.84;34.29;99736.00;5051739;28;20090;-71
2022/03/25 03:33:08;;;;;;;19.90;13.02;;;;;;;8.82;35.05;100185.72;5052524;28;20322;-69
2022/03/25 03:35:41;;;;;;;21.73;12.98;;;;;;;8.68;34.66;100086.66;5069145;28;20056;-70
2022/03/25 03:38:15;;;;;;;19.33;11.38;;;;;;;8.49;35.20;100042.44;5070030;28;20051;-70
2022/03/25 03:40:47;;;;;;;18.35;11.52;;;;;;;8.79;34.58;100095.97;5071994;28;20041;-70
2022/03/25 03:43:21;;;;;;;18.83;11.18;;;;;;;8.82;34.52;100087.94;5068741;28;20052;-70
2022/03/25 03:45:54;;;;;;;18.17;12.13;;;;;;;8.67;35.02;100087.56;5067858;28;20190;-70
2022/03/25 03:48:26;;;;;;;18.50;12.38;;;;;;;8.65;34.83;100088.53;5072212;28;20047;-70
2022/03/25 03:50:58;;;;;;;17.88;11.30;;;;;;;8.64;34.74;100089.44;5067537;28;20045;-71
2022/03/25 03:53:32;;;;;;;19.08;13.30;;;;;;;7.94;35.43;99963.38;5066855;28;20395;-70
2022/03/25 03:56:06;;;;;;;18.83;12.10;;;;;;;7.88;34.93;99974.16;5068306;28;20057;-71
2022/03/25 03:58:38;;;;;;;23.67;14.18;;;;;;;8.56;35.24;100089.72;5052632;28;20055;-71
2022/03/25 04:01:11;;;;;;;22.90;12.88;;;;;;;8.55;34.96;100087.13;5068101;28;20041;-72
2022/03/25 04:03:44;;;;;;;24.83;13.30;;;;;;;6.09;34.94;99667.34;5071336;28;20104;-71
2022/03/25 04:06:22;;;;;;;22.25;12.77;;;;;;;8.49;35.01;100119.91;5053948;28;20135;-72
2022/03/25 04:08:56;;;;;;;15.52;10.48;;;;;;;8.03;35.02;100026.41;5086532;28;20046;-71
2022/03/25 04:11:28;;;;;;;18.52;12.60;;;;;;;8.42;35.00;100085.84;5086148;28;20062;-71
2022/03/25 04:14:00;;;;;;;18.63;11.80;;;;;;;8.16;34.97;100045.34;5086224;28;20217;-70
2022/03/25 04:16:32;;;;;;;19.25;13.18;;;;;;;8.37;34.76;100087.78;5086194;28;20296;-71
2022/03/25 04:19:05;;;;;;;17.42;12.02;;;;;;;7.74;35.24;99986.09;5068540;28;20316;-71
2022/03/25 04:21:37;;;;;;;18.42;12.23;;;;;;;8.33;35.34;100087.88;5086023;28;20102;-71
2022/03/25 04:24:11;;;;;;;24.33;15.23;;;;;;;7.37;35.57;99967.06;5085936;28;20256;-71
2022/03/25 04:26:43;;;;;;;17.67;11.90;;;;;;;8.14;36.00;100104.41;5052731;28;20231;-71
2022/03/25 04:29:16;;;;;;;22.40;14.35;;;;;;;8.14;35.48;100089.41;5085831;28;20208;-72
2022/03/25 04:31:48;;;;;;;18.08;13.07;;;;;;;8.16;35.68;100095.50;5068105;28;20037;-71
2022/03/25 04:34:20;;;;;;;19.05;12.38;;;;;;;7.91;36.54;100061.16;5085925;28;20070;-71
2022/03/25 04:36:53;;;;;;;20.42;12.48;;;;;;;7.25;35.79;99950.75;5068300;28;20082;-70
2022/03/25 04:39:28;;;;;;;21.60;12.27;;;;;;;8.01;36.77;100098.66;5085249;28;20041;-71
2022/03/25 04:42:00;;;;;;;19.05;13.10;;;;;;;7.43;36.30;99997.66;5086049;28;20048;-71
2022/03/25 04:44:33;;;;;;;17.52;13.27;;;;;;;7.73;36.32;100052.97;5085652;28;20045;-71
2022/03/25 04:47:05;;;;;;;18.20;13.10;;;;;;;7.85;36.89;100108.84;5085447;28;20223;-71
2022/03/25 04:49:37;;;;;;;19.52;13.25;;;;;;;7.84;36.62;100104.50;5085551;28;20040;-71
2022/03/25 04:52:10;;;;;;;19.67;12.73;;;;;;;7.55;36.45;100043.88;5086096;28;20200;-71
2022/03/25 04:54:44;;;;;;;17.67;12.27;;;;;;;7.80;36.96;100105.50;5069486;28;20104;-72
2022/03/25 04:57:17;;;;;;;18.35;11.98;;;;;;;7.82;36.74;100111.59;5084983;28;20047;-70
2022/03/25 04:59:49;;;;;;;18.25;12.30;;;;;;;7.44;37.27;100052.13;5086039;28;20086;-71
2022/03/25 05:02:22;;;;;;;17.42;12.43;;;;;;;7.76;36.79;100114.44;5084582;28;20064;-71
2022/03/25 05:04:55;;;;;;;17.48;12.60;;;;;;;7.83;36.61;100112.47;5070498;28;20055;-70
2022/03/25 05:07:27;;;;;;;18.58;12.07;;;;;;;7.85;37.07;100114.13;5089498;28;20051;-71
2022/03/25 05:10:02;;;;;;;19.73;12.85;;;;;;;7.56;36.85;100064.06;5089434;28;20036;-71
2022/03/25 05:12:34;;;;;;;21.25;12.90;;;;;;;7.84;36.74;100122.97;5072048;28;20044;-71
2022/03/25 05:15:07;;;;;;;18.55;12.90;;;;;;;6.96;36.51;99991.19;5089430;28;20052;-71
2022/03/25 05:17:44;;;;;;;20.67;11.77;;;;;;;7.55;37.60;100078.16;5071737;28;20063;-70
2022/03/25 05:20:19;;;;;;;20.27;12.57;;;;;;;7.53;36.86;100074.72;5089167;28;20079;-70
2022/03/25 05:22:51;;;;;;;20.83;12.38;;;;;;;7.52;36.94;100071.22;5089581;28;20050;-71
2022/03/25 05:25:23;;;;;;;19.00;13.43;;;;;;;7.71;37.13;100124.25;5089505;28;20051;-70
2022/03/25 05:27:55;;;;;;;21.05;12.55;;;;;;;7.48;37.15;100085.41;5089577;28;20052;-71
2022/03/25 05:30:27;;;;;;;;;;;;;;;7.76;39.51;100130.25;5089219;28;20104;-71
2022/03/25 05:32:57;;;;;;;22.63;13.25;;;;;;;7.70;37.57;100130.44;5089385;28;19916;-71
2022/03/25 05:35:28;;;;;;;19.33;11.75;;;;;;;7.79;38.28;100124.03;5089547;28;20028;-71
2022/03/25 05:37:57;;;;;;;18.55;12.40;;;;;;;7.85;37.45;100142.31;5089133;28;20040;-71
2022/03/25 05:40:31;;;;;;;20.98;12.40;;;;;;;7.91;37.77;100140.31;5089038;28;20304;-72
2022/03/25 05:43:03;;;;;;;23.98;15.48;;;;;;;7.91;36.85;100140.31;5054823;28;20044;-71
2022/03/25 05:45:36;;;;;;;20.40;14.25;;;;;;;7.04;36.94;100055.09;5071817;28;20071;-71
2022/03/25 05:48:09;;;;;;;21.77;15.40;;;;;;;5.19;37.29;99653.44;5071869;28;20032;-71
2022/03/25 05:50:41;;;;;;;17.65;13.15;;;;;;;6.53;36.24;99788.78;5071381;28;20056;-71
2022/03/25 05:53:14;;;;;;;24.55;13.77;;;;;;;9.73;35.09;100134.78;5088972;28;20308;-71
2022/03/25 05:55:49;;;;;;;25.08;14.63;;;;;;;10.91;33.06;100126.28;5088795;28;20033;-71
2022/03/25 05:58:21;;;;;;;;;;;;;;;11.94;32.95;100116.22;5071906;28;20055;-71
2022/03/25 06:00:53;;;;;;;21.67;13.20;;;;;;;10.26;30.61;99700.78;5088787;28;19916;-71
2022/03/25 06:03:30;;;;;;;23.83;15.52;;;;;;;11.87;29.29;99865.97;5088701;28;20063;-71
2022/03/25 06:06:05;;;;;;;23.10;12.95;;;;;;;14.35;27.87;100133.47;5071430;28;20314;-71
2022/03/25 06:08:37;;;;;;;;;;;;;;;14.71;28.86;100115.38;5089310;28;20044;-71
2022/03/25 06:11:11;;;;;;;22.55;14.85;;;;;;;15.10;27.88;100119.22;5071249;28;19983;-70
2022/03/25 06:13:44;;;;;;;20.75;13.43;;;;;;;13.91;27.99;99945.03;5088321;28;20062;-71
2022/03/25 06:16:17;;;;;;;18.40;13.00;;;;;;;9.67;28.49;99321.66;5069438;28;20047;-71
2022/03/25 06:18:52;;;;;;;19.90;14.63;;;;;;;1.05;28.88;98023.75;5071054;28;20040;-72
2022/03/25 06:21:26;;;;;;;17.63;12.98;;;;;;;3.04;28.84;98269.25;5070601;28;20064;-71
2022/03/25 06:23:58;;;;;;;19.45;13.52;;;;;;;15.17;28.10;100128.56;5070800;28;20102;-71
2022/03/25 06:26:39;;;;;;;19.98;13.35;;;;;;;15.70;27.58;100135.91;5071081;28;20047;-70
2022/03/25 06:29:12;;;;;;;21.02;13.43;;;;;;;14.79;26.68;99849.88;5087761;28;20051;-71
2022/03/25 06:31:45;;;;;;;21.52;13.98;;;;;;;17.09;26.13;100112.34;5088209;28;20048;-71
2022/03/25 06:34:20;;;;;;;23.20;15.32;;;;;;;17.08;25.99;100081.19;5071431;28;20197;-71
2022/03/25 06:36:54;;;;;;;22.33;16.35;;;;;;;16.78;26.38;100124.34;5088167;28;20046;-71
2022/03/25 06:39:26;;;;;;;24.00;15.88;;;;;;;15.98;27.59;100134.13;5087285;28;20055;-71
2022/03/25 06:42:01;;;;;;;32.20;18.23;;;;;;;15.33;28.48;100125.81;5070652;28;20071;-70
2022/03/25 06:44:33;;;;;;;28.45;17.52;;;;;;;13.53;29.53;99941.97;5087858;28;20086;-71
2022/03/25 06:47:05;;;;;;;23.85;16.88;;;;;;;13.97;30.83;100133.03;5070472;28;20204;-71
2022/03/25 06:49:39;;;;;;;23.05;15.85;;;;;;;13.44;31.69;100144.84;5087475;28;20078;-70
2022/03/25 06:52:12;;;;;;;22.85;17.30;;;;;;;12.95;32.23;100149.25;5087053;28;20335;-71
2022/03/25 06:54:45;;;;;;;27.08;17.38;;;;;;;11.75;33.11;100010.88;5087706;28;20071;-71
2022/03/25 06:57:21;;;;;;;25.55;15.85;;;;;;;11.75;33.03;100010.00;5070017;28;20261;-71
2022/03/25 06:59:54;;;;;;;24.67;17.00;;;;;;;12.66;33.38;100156.06;5087445;28;20040;-71
2022/03/25 07:02:27;;;;;;;28.98;18.90;;;;;;;12.45;33.10;100118.13;5066241;28;20091;-71
2022/03/25 07:05:00;;;;;;;34.08;18.92;;;;;;;12.74;33.08;100152.06;5067214;28;20045;-71
2022/03/25 07:07:34;;;;;;;22.63;16.33;;;;;;;12.78;32.93;100152.78;5066693;28;20045;-71
2022/03/25 07:10:09;;;;;;;20.02;15.02;;;;;;;12.77;32.99;100159.91;5066408;28;20044;-71
2022/03/25 07:12:45;;;;;;;24.77;17.88;;;;;;;12.51;32.60;100110.72;5066612;28;20228;-72
2022/03/25 07:15:18;;;;;;;21.13;14.55;;;;;;;13.00;32.14;100164.03;5067153;28;20044;-72
2022/03/25 07:17:52;;;;;;;22.42;15.30;;;;;;;13.20;31.58;100164.78;5066875;28;20041;-72
2022/03/25 07:20:26;;;;;;;20.10;14.73;;;;;;;13.26;31.16;100169.78;5066945;28;20045;-72
2022/03/25 07:22:55;;;;;;;22.25;13.82;;;;;;;13.33;30.81;100166.69;5065885;28;20052;-71
2022/03/25 07:25:25;;;;;;;22.23;14.90;;;;;;;13.52;30.67;100166.59;5066550;28;20045;-71
2022/03/25 07:27:56;;;;;;;24.60;15.13;;;;;;;13.62;30.19;100165.16;5066469;28;20076;-71
2022/03/25 07:30:25;;;;;;;25.00;15.63;;;;;;;13.80;30.15;100165.94;5065702;28;20037;-71
2022/03/25 07:32:55;;;;;;;21.20;15.88;;;;;;;13.94;30.05;100162.50;5066682;28;20051;-71
2022/03/25 07:35:25;;;;;;;23.38;15.45;;;;;;;14.03;29.40;100154.00;5066997;28;20040;-71
2022/03/25 07:37:55;;;;;;;19.90;14.32;;;;;;;14.18;29.50;100153.13;5065950;28;20099;-71
2022/03/25 07:40:25;;;;;;;21.58;13.27;;;;;;;14.31;29.46;100153.28;5066588;28;20041;-71
2022/03/25 07:42:58;;;;;;;20.95;13.80;;;;;;;14.51;29.15;100152.97;5066771;28;20095;-71
2022/03/25 07:45:30;;;;;;;18.25;13.23;;;;;;;14.68;29.18;100149.38;5066532;28;20041;-71
2022/03/25 07:48:00;;;;;;;20.08;13.38;;;;;;;14.86;28.76;100158.94;5066379;28;20044;-71
2022/03/25 07:50:31;;;;;;;20.55;15.20;;;;;;;14.90;27.99;100160.47;5066881;28;20029;-72
2022/03/25 07:53:01;;;;;;;20.45;14.57;;;;;;;15.00;27.99;100161.63;5066437;28;20052;-71
2022/03/25 07:55:31;;;;;;;22.50;16.17;;;;;;;14.83;27.75;100126.25;5065618;28;20051;-71
2022/03/25 07:58:03;;;;;;;21.10;14.00;;;;;;;14.89;28.09;100116.06;5066196;28;20052;-71
2022/03/25 08:00:31;;;;;;;22.70;14.93;;;;;;;15.33;27.78;100158.72;5066469;28;20060;-71
2022/03/25 08:03:01;;;;;;;23.88;13.98;;;;;;;15.39;27.72;100161.00;5080835;28;20045;-71
2022/03/25 08:05:34;;;;;;;19.13;14.18;;;;;;;15.15;27.72;100117.13;5085880;28;20059;-71
2022/03/25 08:08:02;;;;;;;24.23;15.50;;;;;;;15.55;27.69;100155.56;5085013;28;20044;-71
2022/03/25 08:10:33;;;;;;;22.92;14.18;;;;;;;15.24;27.06;100073.81;5068674;28;20040;-71
2022/03/25 08:13:05;;;;;;;17.98;13.80;;;;;;;15.74;27.24;100157.09;5085994;28;20094;-71
2022/03/25 08:15:37;;;;;;;22.10;15.32;;;;;;;15.93;27.03;100152.28;5085901;28;20070;-72
2022/03/25 08:18:11;;;;;;;24.63;15.48;;;;;;;16.02;27.30;100152.53;5085676;28;20044;-72
2022/03/25 08:20:46;;;;;;;21.40;14.98;;;;;;;16.10;27.04;100164.56;5068201;28;20046;-72
2022/03/25 08:29:00;;;;;;;22.77;14.18;;;;;;;16.53;26.33;100158.09;5085463;28;20247;-71
2022/03/25 08:31:34;;;;;;;18.88;14.45;;;;;;;16.50;26.62;100133.34;5068074;28;20041;-72
2022/03/25 08:34:11;;;;;;;21.80;16.85;;;;;;;16.84;26.45;100162.25;5085687;28;20047;-72
2022/03/25 08:36:45;;;;;;;27.02;15.25;;;;;;;16.94;26.02;100160.66;5085410;28;20050;-72
2022/03/25 08:39:18;;;;;;;28.27;16.15;;;;;;;16.07;26.41;99994.50;5084725;28;20208;-71
2022/03/25 08:41:51;;;;;;;22.73;14.88;;;;;;;17.04;26.25;100101.13;5085690;28;20044;-71
2022/03/25 08:44:24;;;;;;;24.00;15.05;;;;;;;16.59;25.90;100004.28;5068730;28;20051;-71
2022/03/25 08:46:57;;;;;;;25.42;16.02;;;;;;;17.42;25.66;100112.69;5085516;28;20054;-71
2022/03/25 08:49:31;;;;;;;25.90;16.77;;;;;;;17.62;25.98;100116.66;5085663;28;20044;-71
2022/03/25 08:52:04;;;;;;;;;;;;;;;18.00;24.25;100151.38;5085018;28;20044;-71
2022/03/25 08:54:36;;;;;;;19.90;14.57;;;;;;;18.06;25.89;100142.03;5085463;28;20126;-71
2022/03/25 08:57:09;;;;;;;19.88;14.65;;;;;;;18.31;25.15;100147.28;5085502;28;20045;-71
2022/03/25 08:59:43;;;;;;;22.13;14.80;;;;;;;18.49;25.25;100147.75;5085424;28;20087;-71
2022/03/25 09:02:15;;;;;;;23.98;16.73;;;;;;;18.61;25.14;100146.84;5084979;28;20059;-71
2022/03/25 09:04:48;;;;;;;23.50;17.67;;;;;;;18.69;25.25;100151.63;5085042;28;20103;-71
2022/03/25 09:07:21;;;;;;;21.60;15.52;;;;;;;18.71;24.92;100149.69;5084999;28;20060;-71
2022/03/25 09:09:53;;;;;;;18.50;14.40;;;;;;;18.19;24.79;100065.03;5068661;28;20079;-72
2022/03/25 09:12:26;;;;;;;17.80;13.85;;;;;;;18.79;24.77;100149.94;5067819;28;20052;-72
2022/03/25 09:15:00;;;;;;;20.52;15.93;;;;;;;17.17;24.31;99885.88;5085236;28;20041;-72
2022/03/25 09:17:32;;;;;;;22.70;15.43;;;;;;;18.62;24.65;100115.47;5084926;28;20239;-72
2022/03/25 09:20:08;;;;;;;25.48;15.65;;;;;;;17.76;24.30;99947.59;5067574;28;20098;-72
2022/03/25 09:22:40;;;;;;;17.58;13.68;;;;;;;19.11;24.75;100142.94;5084870;28;20047;-71
2022/03/25 09:25:13;;;;;;;26.77;16.08;;;;;;;18.92;23.62;100143.53;5084935;28;20103;-72
2022/03/25 09:27:46;;;;;;;18.63;14.48;;;;;;;18.97;24.51;100148.53;5085625;28;20044;-72
2022/03/25 09:30:20;;;;;;;18.83;13.95;;;;;;;19.25;24.03;100139.19;5085072;28;20041;-72
2022/03/25 09:32:52;;;;;;;20.10;14.15;;;;;;;19.15;23.15;100116.69;5084510;28;20161;-72
2022/03/25 09:35:25;;;;;;;22.20;13.48;;;;;;;18.80;23.54;100088.06;5084772;28;20036;-73
2022/03/25 09:37:55;;;;;;;17.92;12.50;;;;;;;18.41;23.74;99975.72;5085121;28;20033;-71
2022/03/25 09:40:27;;;;;;;16.15;13.30;;;;;;;19.59;23.40;100147.28;5067055;28;20052;-72
2022/03/25 09:42:57;;;;;;;18.40;13.82;;;;;;;19.61;23.24;100138.13;5084749;28;20131;-72
2022/03/25 09:45:30;;;;;;;19.75;12.52;;;;;;;18.61;22.51;99977.72;5084521;28;20056;-71
2022/03/25 09:48:01;;;;;;;15.40;11.77;;;;;;;19.62;22.99;100131.75;5067170;28;20059;-72
2022/03/25 09:50:33;;;;;;;14.00;10.35;;;;;;;19.77;22.68;100137.72;5085656;28;20082;-72
2022/03/25 09:53:01;;;;;;;18.25;10.10;;;;;;;19.89;22.90;100130.53;5088221;28;20077;-72
2022/03/25 09:55:32;;;;;;;17.90;9.80;;;;;;;20.11;22.45;100152.88;5088120;28;20041;-72
2022/03/25 09:58:04;;;;;;;13.90;10.18;;;;;;;20.19;22.65;100136.09;5088177;28;20040;-72
2022/03/25 10:00:38;;;;;;;17.52;12.43;;;;;;;20.36;21.96;100129.34;5087422;28;20041;-72
2022/03/25 10:03:10;;;;;;;17.38;12.23;;;;;;;20.27;22.30;100081.66;5088609;28;20118;-72
2022/03/25 10:05:54;;;;;;;22.38;12.13;;;;;;;20.53;21.35;100127.91;5088255;28;20051;-72
2022/03/25 10:08:30;;;;;;;17.23;11.80;;;;;;;20.30;21.56;100082.25;5070681;28;20090;-72
2022/03/25 10:11:20;;;;;;;15.27;9.80;;;;;;;20.58;20.79;100126.53;5087816;28;20040;-72
2022/03/25 10:14:16;;;;;;;15.85;11.52;;;;;;;20.45;20.68;100112.41;5087801;28;20082;-72
2022/03/25 10:16:51;;;;;;;19.45;13.50;;;;;;;20.54;21.35;100116.16;5087630;28;20235;-72
2022/03/25 10:19:47;;;;;;;21.10;14.68;;;;;;;20.43;21.43;100117.06;5087707;28;20040;-72
2022/03/25 10:22:20;;;;;;;18.58;13.73;;;;;;;20.54;21.98;100118.84;5087717;28;20041;-71
2022/03/25 10:24:53;;;;;;;21.67;13.27;;;;;;;20.45;21.97;100115.09;5087567;28;20043;-71
2022/03/25 10:27:28;;;;;;;19.65;13.60;;;;;;;20.42;21.54;100118.06;5087502;28;20300;-71
2022/03/25 10:30:03;;;;;;;18.42;13.10;;;;;;;20.61;21.47;100115.50;5087403;28;20037;-71
2022/03/25 10:32:40;;;;;;;20.73;13.82;;;;;;;20.49;20.92;100078.84;5087353;28;20044;-71
2022/03/25 10:35:13;;;;;;;20.45;13.98;;;;;;;20.52;21.99;100124.38;5087476;28;20063;-71
2022/03/25 10:37:56;;;;;;;17.63;12.70;;;;;;;20.78;20.56;100106.00;5087270;28;20048;-71
2022/03/25 10:40:28;;;;;;;18.80;13.77;;;;;;;20.97;21.50;100108.81;5087299;28;20086;-71
2022/03/25 10:43:05;;;;;;;19.08;12.52;;;;;;;19.77;20.46;99923.44;5087613;28;20036;-71
2022/03/25 10:45:34;;;;;;;19.45;13.80;;;;;;;20.75;21.59;100117.88;5069773;28;20055;-71
2022/03/25 10:48:16;;;;;;;19.70;14.35;;;;;;;20.75;20.98;100108.94;5052684;28;20048;-72
2022/03/25 10:51:03;;;;;;;21.10;14.32;;;;;;;20.89;21.07;100102.38;5086980;28;20044;-71
2022/03/25 10:53:37;;;;;;;21.95;14.95;;;;;;;20.08;21.15;99983.59;5084611;28;20094;-71
2022/03/25 10:56:11;;;;;;;21.17;15.35;;;;;;;21.14;21.23;100102.00;5087259;28;20187;-72
2022/03/25 10:58:52;;;;;;;23.85;16.10;;;;;;;20.82;21.01;100061.66;5069676;28;20040;-72
2022/03/25 11:01:25;;;;;;;21.10;15.13;;;;;;;20.83;21.75;100052.56;5086474;28;20044;-72
2022/03/25 11:03:59;;;;;;;23.23;16.15;;;;;;;20.96;21.12;100095.47;5086255;28;20052;-71
2022/03/25 11:06:34;;;;;;;17.73;15.18;;;;;;;20.37;21.30;100018.84;5085580;28;20044;-71
2022/03/25 11:09:09;;;;;;;21.10;15.73;;;;;;;20.66;20.98;100091.75;5086724;28;20037;-71
2022/03/25 11:11:42;;;;;;;21.00;15.23;;;;;;;20.11;21.66;99977.97;5086465;28;20040;-72
2022/03/25 11:14:15;;;;;;;23.07;15.27;;;;;;;20.94;21.34;100076.75;5086599;28;20040;-71
2022/03/25 11:16:49;;;;;;;20.17;15.77;;;;;;;21.16;21.50;100077.59;5068691;28;20041;-71
2022/03/25 11:19:24;;;;;;;28.75;17.52;;;;;;;21.34;20.86;100075.97;5086156;28;20182;-71
2022/03/25 11:21:58;;;;;;;18.70;15.32;;;;;;;21.31;21.23;100041.19;5086064;28;20040;-71
2022/03/25 11:24:36;;;;;;;21.55;16.30;;;;;;;21.34;20.59;100031.00;5086065;28;20040;-71
2022/03/25 11:27:16;;;;;;;20.77;16.92;;;;;;;21.46;20.52;100069.50;5086309;28;20082;-72
2022/03/25 11:29:52;;;;;;;19.65;15.13;;;;;;;21.44;20.75;100061.53;5086188;28;20048;-71
2022/03/25 11:32:25;;;;;;;23.00;17.85;;;;;;;21.34;20.58;100054.41;5085526;28;20054;-71
2022/03/25 11:35:19;;;;;;;24.83;18.80;;;;;;;20.90;20.42;100021.41;5086065;28;20040;-71
2022/03/25 11:38:15;;;;;;;21.90;16.95;;;;;;;21.19;20.22;100055.75;5068426;28;20052;-71
2022/03/25 11:40:49;;;;;;;24.75;16.48;;;;;;;21.47;20.85;100052.31;5085676;28;20040;-71
2022/03/25 11:43:24;;;;;;;22.77;16.73;;;;;;;21.21;20.36;100002.56;5085729;28;20051;-71
2022/03/25 11:46:05;;;;;;;18.85;13.77;;;;;;;21.00;19.65;99935.25;5068748;28;20036;-71
2022/03/25 11:48:42;;;;;;;25.90;16.25;;;;;;;21.41;20.41;100040.25;5085703;28;20044;-70